Time;durP1;ratioP1;P1;durP2;ratioP2;P2;SDS_P1;SDS_P2;PMS_P1;PMS_P2;Temp;Humidity;BMP_temperature;BMP_pressure;BME280_temperature;BME280_humidity;BME280_pressure;Samples;Min_cycle;Max_cycle;Signal;HPM_P1;HPM_P2
2021/12/26 00:00:19;;;;;;;6.15;3.17;;;;;;;;;;5022812;28;20049;-72
2021/12/26 00:02:45;;;;;;;5.10;3.08;;;;;;;;;;5018981;28;20037;-72
2021/12/26 00:05:12;;;;;;;5.25;2.97;;;;;;;;;;5019202;28;20041;-72
2021/12/26 00:07:38;;;;;;;15.25;3.28;;;;;;;;;;5036035;28;20072;-73
2021/12/26 00:10:05;;;;;;;4.45;3.00;;;;;;;;;;5031848;28;20052;-72
2021/12/26 00:12:31;;;;;;;6.72;3.10;;;;;;;;;;5053345;28;20479;-74
2021/12/26 00:14:58;;;;;;;6.15;3.10;;;;;;;;;;5030742;28;20103;-74
2021/12/26 00:17:24;;;;;;;5.30;2.70;;;;;;;;;;5037565;28;20061;-73
2021/12/26 00:19:50;;;;;;;5.82;3.33;;;;;;;;;;5035569;28;20052;-72
2021/12/26 00:22:16;;;;;;;5.25;3.05;;;;;;;;;;5037434;28;20051;-73
2021/12/26 00:24:42;;;;;;;5.07;3.22;;;;;;;;;;5023328;28;20311;-71
2021/12/26 00:27:08;;;;;;;4.25;2.90;;;;;;;;;;5021095;28;20124;-74
2021/12/26 00:29:34;;;;;;;7.00;3.42;;;;;;;;;;5031977;28;20048;-74
2021/12/26 00:32:00;;;;;;;4.15;2.85;;;;;;;;;;5031685;28;20045;-74
2021/12/26 00:34:27;;;;;;;4.07;2.80;;;;;;;;;;5048405;28;20045;-74
2021/12/26 00:36:53;;;;;;;3.78;2.88;;;;;;;;;;5018340;28;20068;-75
2021/12/26 00:39:19;;;;;;;6.90;3.00;;;;;;;;;;5030006;28;20063;-73
2021/12/26 00:41:45;;;;;;;4.22;2.65;;;;;;;;;;5037681;28;20044;-74
2021/12/26 00:44:11;;;;;;;4.25;3.10;;;;;;;;;;5024326;28;20429;-73
2021/12/26 00:46:37;;;;;;;4.63;2.65;;;;;;;;;;5018132;28;20045;-73
2021/12/26 00:49:04;;;;;;;6.20;3.17;;;;;;;;;;5040362;28;20048;-74
2021/12/26 00:51:31;;;;;;;3.80;2.90;;;;;;;;;;5037519;28;20033;-73
2021/12/26 00:53:57;;;;;;;3.53;2.80;;;;;;;;;;5029840;28;20060;-73
2021/12/26 00:56:23;;;;;;;4.03;2.70;;;;;;;;;;5017516;28;20064;-73
2021/12/26 00:58:49;;;;;;;3.95;2.67;;;;;;;;;;5034542;28;20049;-73
2021/12/26 01:01:15;;;;;;;6.47;3.05;;;;;;;;;;5035528;28;20110;-73
2021/12/26 01:03:42;;;;;;;5.20;2.95;;;;;;;;;;5034347;28;20126;-75
2021/12/26 01:06:08;;;;;;;5.47;2.80;;;;;;;;;;5050366;28;20041;-73
2021/12/26 01:08:39;;;;;;;4.28;2.67;;;;;;;;;;5031831;28;20036;-72
2021/12/26 01:11:20;;;;;;;4.10;2.67;;;;;;;;;;5024324;28;20046;-72
2021/12/26 01:13:47;;;;;;;3.78;2.55;;;;;;;;;;5025302;28;20349;-72
2021/12/26 01:16:14;;;;;;;3.22;2.50;;;;;;;;;;5033302;28;20044;-71
2021/12/26 01:18:50;;;;;;;5.07;2.90;;;;;;;;;;5030554;28;20045;-73
2021/12/26 01:21:21;;;;;;;3.67;2.67;;;;;;;;;;5016593;28;20124;-73
2021/12/26 01:23:52;;;;;;;5.15;2.70;;;;;;;;;;5034259;28;20056;-71
2021/12/26 01:26:19;;;;;;;3.30;2.30;;;;;;;;;;5001063;28;20053;-73
2021/12/26 01:28:45;;;;;;;3.95;2.67;;;;;;;;;;5001009;28;20050;-72
2021/12/26 01:31:13;;;;;;;4.50;2.60;;;;;;;;;;5004368;28;20052;-73
2021/12/26 01:33:39;;;;;;;3.60;2.45;;;;;;;;;;5013695;28;20377;-72
2021/12/26 01:36:05;;;;;;;3.10;2.55;;;;;;;;;;4997392;28;20061;-73
2021/12/26 01:38:31;;;;;;;3.72;2.40;;;;;;;;;;4997342;28;20042;-72
2021/12/26 01:40:57;;;;;;;3.38;2.65;;;;;;;;;;5007742;28;20095;-72
2021/12/26 01:43:26;;;;;;;4.05;2.25;;;;;;;;;;5016074;28;20349;-73
2021/12/26 01:45:53;;;;;;;3.05;2.63;;;;;;;;;;5016978;28;20045;-72
2021/12/26 01:48:20;;;;;;;4.03;2.47;;;;;;;;;;5013785;28;20061;-71
2021/12/26 01:50:48;;;;;;;4.15;2.35;;;;;;;;;;4996930;28;20041;-71
2021/12/26 01:53:15;;;;;;;3.58;2.35;;;;;;;;;;5013710;28;20135;-71
2021/12/26 01:55:44;;;;;;;4.15;2.70;;;;;;;;;;5017532;28;20118;-72
2021/12/26 01:58:15;;;;;;;3.42;2.58;;;;;;;;;;5015214;28;20045;-73
2021/12/26 02:00:43;;;;;;;3.55;2.65;;;;;;;;;;5014185;28;20512;-73
2021/12/26 02:03:09;;;;;;;4.45;2.72;;;;;;;;;;4999834;28;20464;-73
2021/12/26 02:05:35;;;;;;;5.63;3.00;;;;;;;;;;5016635;28;20049;-71
2021/12/26 02:08:01;;;;;;;4.70;2.75;;;;;;;;;;5016465;28;20045;-72
2021/12/26 02:10:27;;;;;;;4.68;2.95;;;;;;;;;;5016176;28;20048;-72
2021/12/26 02:12:53;;;;;;;4.13;2.90;;;;;;;;;;5000415;28;20041;-72
2021/12/26 02:15:20;;;;;;;3.85;3.03;;;;;;;;;;5034074;28;20049;-72
2021/12/26 02:17:46;;;;;;;4.63;2.83;;;;;;;;;;5016163;28;20049;-71
2021/12/26 02:20:27;;;;;;;4.90;2.50;;;;;;;;;;5033651;28;20045;-72
2021/12/26 02:22:59;;;;;;;5.53;2.90;;;;;;;;;;5016664;28;20056;-72
2021/12/26 02:25:32;;;;;;;3.63;2.67;;;;;;;;;;4999362;28;20058;-73
2021/12/26 02:27:58;;;;;;;3.67;2.58;;;;;;;;;;5012127;28;20437;-74
2021/12/26 02:30:24;;;;;;;5.47;2.70;;;;;;;;;;5021226;28;20053;-74
2021/12/26 02:32:51;;;;;;;4.95;2.75;;;;;;;;;;4997832;28;20128;-73
2021/12/26 02:35:18;;;;;;;3.80;2.70;;;;;;;;;;5006708;28;20042;-73
2021/12/26 02:37:44;;;;;;;4.80;2.60;;;;;;;;;;5000966;28;20469;-74
2021/12/26 02:40:10;;;;;;;3.53;2.50;;;;;;;;;;5012590;28;20392;-72
2021/12/26 02:42:36;;;;;;;4.15;2.40;;;;;;;;;;5020118;28;20041;-72
2021/12/26 02:45:03;;;;;;;3.22;2.60;;;;;;;;;;5018436;28;20049;-73
2021/12/26 02:47:36;;;;;;;3.90;2.30;;;;;;;;;;5020053;28;20111;-73
2021/12/26 02:50:11;;;;;;;3.90;2.60;;;;;;;;;;4999492;28;20049;-73
2021/12/26 02:52:37;;;;;;;4.70;2.42;;;;;;;;;;4997389;28;20050;-73
2021/12/26 02:55:04;;;;;;;4.25;2.65;;;;;;;;;;5003122;28;20365;-73
2021/12/26 02:57:30;;;;;;;3.63;2.30;;;;;;;;;;5000307;28;20046;-73
2021/12/26 03:00:00;;;;;;;3.05;2.33;;;;;;;;;;5007958;28;20045;-74
2021/12/26 03:02:26;;;;;;;3.05;2.33;;;;;;;;;;5004040;28;20442;-74
2021/12/26 03:04:52;;;;;;;3.63;2.40;;;;;;;;;;5000836;28;20076;-72
2021/12/26 03:07:18;;;;;;;4.15;2.63;;;;;;;;;;5000157;28;20037;-75
2021/12/26 03:09:46;;;;;;;3.72;2.42;;;;;;;;;;5003621;28;20053;-72
2021/12/26 03:12:13;;;;;;;5.38;2.28;;;;;;;;;;5019718;28;20357;-73
2021/12/26 03:14:40;;;;;;;3.53;2.22;;;;;;;;;;5018014;28;20387;-72
2021/12/26 03:17:07;;;;;;;3.85;2.50;;;;;;;;;;5036930;28;20103;-73
2021/12/26 03:19:34;;;;;;;2.75;2.30;;;;;;;;;;5019936;28;20416;-72
2021/12/26 03:22:01;;;;;;;3.38;2.40;;;;;;;;;;5012646;28;20049;-72
2021/12/26 03:24:27;;;;;;;3.35;2.20;;;;;;;;;;5019048;28;20341;-72
2021/12/26 03:27:04;;;;;;;4.13;2.47;;;;;;;;;;5019912;28;20041;-74
2021/12/26 03:29:30;;;;;;;3.13;2.33;;;;;;;;;;5019288;28;20038;-75
2021/12/26 03:31:56;;;;;;;3.38;2.17;;;;;;;;;;5029558;28;20064;-72
2021/12/26 03:34:22;;;;;;;3.13;2.30;;;;;;;;;;5038322;28;20063;-72
2021/12/26 03:36:52;;;;;;;3.55;2.45;;;;;;;;;;5056339;28;20119;-71
2021/12/26 03:39:18;;;;;;;4.90;2.30;;;;;;;;;;5068844;28;20363;-73
2021/12/26 03:41:45;;;;;;;3.60;2.30;;;;;;;;;;5055942;28;20115;-73
2021/12/26 03:44:11;;;;;;;2.63;2.20;;;;;;;;;;5038369;28;20065;-71
2021/12/26 03:46:37;;;;;;;3.03;2.45;;;;;;;;;;5055785;28;20110;-71
2021/12/26 03:49:05;;;;;;;3.80;2.30;;;;;;;;;;5020536;28;20045;-71
2021/12/26 03:51:33;;;;;;;3.22;2.20;;;;;;;;;;5022964;28;20120;-72
2021/12/26 03:53:59;;;;;;;3.92;2.47;;;;;;;;;;5024166;28;20110;-73
2021/12/26 03:56:25;;;;;;;4.07;2.70;;;;;;;;;;5018814;28;20476;-72
2021/12/26 03:58:51;;;;;;;3.80;2.65;;;;;;;;;;5061493;28;20059;-72
2021/12/26 04:01:17;;;;;;;4.78;2.53;;;;;;;;;;5027749;28;20049;-73
2021/12/26 04:03:43;;;;;;;3.05;2.20;;;;;;;;;;5036351;28;20052;-73
2021/12/26 04:06:09;;;;;;;3.58;2.50;;;;;;;;;;5034559;28;20049;-73
2021/12/26 04:08:35;;;;;;;3.05;2.47;;;;;;;;;;5035801;28;20471;-74
2021/12/26 04:11:01;;;;;;;4.40;2.55;;;;;;;;;;5038581;28;20045;-72
2021/12/26 04:13:28;;;;;;;4.00;3.00;;;;;;;;;;5038057;28;20044;-73
2021/12/26 04:15:54;;;;;;;3.05;2.35;;;;;;;;;;5038186;28;20033;-71
2021/12/26 04:18:20;;;;;;;2.65;2.10;;;;;;;;;;5035842;28;20054;-72
2021/12/26 04:20:46;;;;;;;2.97;2.20;;;;;;;;;;5027098;28;20369;-72
2021/12/26 04:23:14;;;;;;;3.72;2.67;;;;;;;;;;5037009;28;20127;-72
2021/12/26 04:25:41;;;;;;;3.28;2.47;;;;;;;;;;5037617;28;20471;-73
2021/12/26 04:28:07;;;;;;;3.20;2.40;;;;;;;;;;5037999;28;20083;-74
2021/12/26 04:30:34;;;;;;;4.28;2.65;;;;;;;;;;5035847;28;20044;-73
2021/12/26 04:33:01;;;;;;;4.07;2.42;;;;;;;;;;5037623;28;20057;-72
2021/12/26 04:35:27;;;;;;;4.18;2.63;;;;;;;;;;5037680;28;20061;-71
2021/12/26 04:37:54;;;;;;;3.70;2.60;;;;;;;;;;5038180;28;20056;-72
2021/12/26 04:40:21;;;;;;;3.17;2.30;;;;;;;;;;5021335;28;20110;-72
2021/12/26 04:42:47;;;;;;;3.67;2.55;;;;;;;;;;5023563;28;20365;-72
2021/12/26 04:45:14;;;;;;;3.80;2.20;;;;;;;;;;5052982;28;20504;-71
2021/12/26 04:47:41;;;;;;;3.75;2.53;;;;;;;;;;5037426;28;20056;-72
2021/12/26 04:50:11;;;;;;;3.22;2.45;;;;;;;;;;5037359;28;20120;-72
2021/12/26 04:52:39;;;;;;;3.05;2.40;;;;;;;;;;5036473;28;20049;-73
2021/12/26 04:55:05;;;;;;;3.72;2.30;;;;;;;;;;5018177;28;20152;-73
2021/12/26 04:57:32;;;;;;;3.08;2.10;;;;;;;;;;5017370;28;20052;-71
2021/12/26 04:59:59;;;;;;;3.38;2.42;;;;;;;;;;5023337;28;20079;-73
2021/12/26 05:02:28;;;;;;;3.40;2.40;;;;;;;;;;5037075;28;20433;-72
2021/12/26 05:04:54;;;;;;;3.28;2.55;;;;;;;;;;5025957;28;20128;-73
2021/12/26 05:07:20;;;;;;;3.42;2.35;;;;;;;;;;5034876;28;20049;-71
2021/12/26 05:09:48;;;;;;;4.10;2.10;;;;;;;;;;5022377;28;20116;-72
2021/12/26 05:12:14;;;;;;;3.97;2.35;;;;;;;;;;5018304;28;20045;-71
2021/12/26 05:14:40;;;;;;;3.53;2.38;;;;;;;;;;5017616;28;20365;-71
2021/12/26 05:17:06;;;;;;;2.85;2.15;;;;;;;;;;5021405;28;20044;-74
2021/12/26 05:19:32;;;;;;;2.72;2.20;;;;;;;;;;5054824;28;20057;-71
2021/12/26 05:21:59;;;;;;;3.10;2.28;;;;;;;;;;5036904;28;20452;-73
2021/12/26 05:24:25;;;;;;;3.78;2.53;;;;;;;;;;5037364;28;20376;-73
2021/12/26 05:26:51;;;;;;;3.25;2.30;;;;;;;;;;5024896;28;20188;-73
2021/12/26 05:29:17;;;;;;;4.38;2.42;;;;;;;;;;5033463;28;20049;-73
2021/12/26 05:31:43;;;;;;;3.30;2.20;;;;;;;;;;5031908;28;20041;-74
2021/12/26 05:34:09;;;;;;;3.85;2.38;;;;;;;;;;5031516;28;20069;-72
2021/12/26 05:36:35;;;;;;;4.50;2.42;;;;;;;;;;5017022;28;20156;-73
2021/12/26 05:39:01;;;;;;;3.15;2.30;;;;;;;;;;5017719;28;20041;-72
2021/12/26 05:41:27;;;;;;;3.58;2.30;;;;;;;;;;5017628;28;20050;-72
2021/12/26 05:43:53;;;;;;;2.65;2.30;;;;;;;;;;5033197;28;20044;-74
2021/12/26 05:46:19;;;;;;;3.17;2.30;;;;;;;;;;5035601;28;20355;-73
2021/12/26 05:48:45;;;;;;;2.97;2.53;;;;;;;;;;5037230;28;20106;-71
2021/12/26 05:51:11;;;;;;;2.72;2.40;;;;;;;;;;5054599;28;20099;-74
2021/12/26 05:53:37;;;;;;;3.17;2.47;;;;;;;;;;5025032;28;20079;-73
2021/12/26 05:56:04;;;;;;;3.78;2.10;;;;;;;;;;5017237;28;20440;-73
2021/12/26 05:58:30;;;;;;;2.72;2.20;;;;;;;;;;5016666;28;20056;-72
2021/12/26 06:00:56;;;;;;;3.33;2.22;;;;;;;;;;5018570;28;20049;-73
2021/12/26 06:03:22;;;;;;;4.53;2.60;;;;;;;;;;5033485;28;20045;-75
2021/12/26 06:05:48;;;;;;;2.88;2.15;;;;;;;;;;5034830;28;20059;-74
2021/12/26 06:08:14;;;;;;;2.97;2.40;;;;;;;;;;5036377;28;20059;-73
2021/12/26 06:10:40;;;;;;;3.33;2.30;;;;;;;;;;5036748;28;20053;-74
2021/12/26 06:13:06;;;;;;;4.22;2.45;;;;;;;;;;5036129;28;20059;-72
2021/12/26 06:15:33;;;;;;;3.25;2.33;;;;;;;;;;5035440;28;20041;-73
2021/12/26 06:17:59;;;;;;;3.60;2.30;;;;;;;;;;5036292;28;20394;-74
2021/12/26 06:20:25;;;;;;;3.10;2.30;;;;;;;;;;5036576;28;20060;-73
2021/12/26 06:22:51;;;;;;;4.57;2.40;;;;;;;;;;5036588;28;20099;-75
2021/12/26 06:25:17;;;;;;;3.05;2.45;;;;;;;;;;5036317;28;20045;-73
2021/12/26 06:27:43;;;;;;;3.17;2.15;;;;;;;;;;5036465;28;20353;-73
2021/12/26 06:30:10;;;;;;;4.25;2.60;;;;;;;;;;5034189;28;20048;-75
2021/12/26 06:32:36;;;;;;;3.55;2.40;;;;;;;;;;5035624;28;20072;-74
2021/12/26 06:35:02;;;;;;;4.80;2.40;;;;;;;;;;5036283;28;20052;-73
2021/12/26 06:37:29;;;;;;;2.70;2.15;;;;;;;;;;5036024;28;20044;-72
2021/12/26 06:39:55;;;;;;;3.35;2.30;;;;;;;;;;5035857;28;20044;-73
2021/12/26 06:42:21;;;;;;;3.35;2.40;;;;;;;;;;5035329;28;20045;-75
2021/12/26 06:44:49;;;;;;;4.45;2.72;;;;;;;;;;5035005;28;20041;-74
2021/12/26 06:47:15;;;;;;;3.20;2.70;;;;;;;;;;5032781;28;20122;-72
2021/12/26 06:49:42;;;;;;;4.03;2.70;;;;;;;;;;5036451;28;20394;-74
2021/12/26 06:52:09;;;;;;;3.17;2.53;;;;;;;;;;5029717;28;20049;-74
2021/12/26 06:54:36;;;;;;;5.97;2.95;;;;;;;;;;5016863;28;20049;-73
2021/12/26 06:57:03;;;;;;;5.38;2.60;;;;;;;;;;5016731;28;20128;-75
2021/12/26 06:59:29;;;;;;;4.80;2.85;;;;;;;;;;5020826;28;20056;-73
2021/12/26 07:01:55;;;;;;;3.47;2.80;;;;;;;;;;5032922;28;20045;-75
2021/12/26 07:04:21;;;;;;;3.95;2.70;;;;;;;;;;5034891;28;20041;-75
2021/12/26 07:06:48;;;;;;;3.47;2.30;;;;;;;;;;5016601;28;20357;-74
2021/12/26 07:09:14;;;;;;;2.83;2.42;;;;;;;;;;5016401;28;20041;-72
2021/12/26 07:11:41;;;;;;;4.90;2.70;;;;;;;;;;5016458;28;20087;-72
2021/12/26 07:14:07;;;;;;;3.13;2.55;;;;;;;;;;5029609;28;20115;-74
2021/12/26 07:16:33;;;;;;;3.38;2.55;;;;;;;;;;5035555;28;20048;-76
2021/12/26 07:18:59;;;;;;;3.85;2.90;;;;;;;;;;5053414;28;20120;-74
2021/12/26 07:21:25;;;;;;;5.28;2.90;;;;;;;;;;5038072;28;20057;-73
2021/12/26 07:23:51;;;;;;;3.85;2.90;;;;;;;;;;5038548;28;20110;-74
2021/12/26 07:26:18;;;;;;;4.43;2.83;;;;;;;;;;5039500;28;20056;-76
2021/12/26 07:28:44;;;;;;;4.88;2.92;;;;;;;;;;5032354;28;20470;-76
2021/12/26 07:31:10;;;;;;;4.65;3.13;;;;;;;;;;5055907;28;20049;-76
2021/12/26 07:33:36;;;;;;;4.70;2.85;;;;;;;;;;5038706;28;20465;-72
2021/12/26 07:36:03;;;;;;;3.67;2.60;;;;;;;;;;5039647;28;20397;-75
2021/12/26 07:38:29;;;;;;;4.40;2.80;;;;;;;;;;5038803;28;20045;-76
2021/12/26 07:40:55;;;;;;;3.60;2.90;;;;;;;;;;5039328;28;20110;-73
2021/12/26 07:43:21;;;;;;;3.13;2.83;;;;;;;;;;5024886;28;20140;-74
2021/12/26 07:45:47;;;;;;;4.85;2.92;;;;;;;;;;5036745;28;20056;-74
2021/12/26 07:48:13;;;;;;;4.68;3.08;;;;;;;;;;5047265;28;20205;-74
2021/12/26 07:50:39;;;;;;;4.93;3.22;;;;;;;;;;5056530;28;20056;-74
2021/12/26 07:53:10;;;;;;;4.43;3.00;;;;;;;;;;5031216;28;20107;-73
2021/12/26 07:55:36;;;;;;;4.70;3.70;;;;;;;;;;5019328;28;20398;-75
2021/12/26 07:58:02;;;;;;;5.35;3.15;;;;;;;;;;5019079;28;20128;-73
2021/12/26 08:00:28;;;;;;;4.43;3.00;;;;;;;;;;5028779;28;20057;-74
2021/12/26 08:02:55;;;;;;;4.47;2.90;;;;;;;;;;5037743;28;20072;-76
2021/12/26 08:05:21;;;;;;;3.67;3.33;;;;;;;;;;5038834;28;20059;-78
2021/12/26 08:07:47;;;;;;;3.85;2.83;;;;;;;;;;5033705;28;20033;-74
2021/12/26 08:10:14;;;;;;;4.20;2.95;;;;;;;;;;5038724;28;20060;-74
2021/12/26 08:12:40;;;;;;;4.40;3.30;;;;;;;;;;5031026;28;20056;-73
2021/12/26 08:15:06;;;;;;;3.85;3.35;;;;;;;;;;5036657;28;20144;-75
2021/12/26 08:17:33;;;;;;;5.43;3.50;;;;;;;;;;5022727;28;20131;-76
2021/12/26 08:19:59;;;;;;;4.78;3.50;;;;;;;;;;5030842;28;20071;-74
2021/12/26 08:22:25;;;;;;;5.47;3.67;;;;;;;;;;5021710;28;20055;-75
2021/12/26 08:24:52;;;;;;;5.47;3.63;;;;;;;;;;5025008;28;20049;-74
2021/12/26 08:27:18;;;;;;;4.78;3.50;;;;;;;;;;5038079;28;20453;-76
2021/12/26 08:29:44;;;;;;;4.25;3.25;;;;;;;;;;5037481;28;20045;-74
2021/12/26 08:32:13;;;;;;;4.75;3.45;;;;;;;;;;5029880;28;20053;-77
2021/12/26 08:34:40;;;;;;;6.22;3.90;;;;;;;;;;5051467;28;20041;-74
2021/12/26 08:37:06;;;;;;;5.10;3.70;;;;;;;;;;5049089;28;20330;-76
2021/12/26 08:39:34;;;;;;;4.55;3.67;;;;;;;;;;5020412;28;20114;-70
2021/12/26 08:42:00;;;;;;;5.40;3.42;;;;;;;;;;5038059;28;20044;-74
2021/12/26 08:44:26;;;;;;;7.28;3.63;;;;;;;;;;5032108;28;20092;-76
2021/12/26 08:46:53;;;;;;;4.28;3.60;;;;;;;;;;5017880;28;20041;-74
2021/12/26 08:49:20;;;;;;;4.25;3.50;;;;;;;;;;5018257;28;20053;-73
2021/12/26 08:51:47;;;;;;;5.53;3.63;;;;;;;;;;5046924;28;20052;-75
2021/12/26 08:54:13;;;;;;;5.93;3.78;;;;;;;;;;5037340;28;20321;-75
2021/12/26 08:56:39;;;;;;;5.93;4.15;;;;;;;;;;5037848;28;20052;-75
2021/12/26 08:59:06;;;;;;;7.30;4.15;;;;;;;;;;5038231;28;20377;-76
2021/12/26 09:01:32;;;;;;;5.35;3.63;;;;;;;;;;5021041;28;20059;-73
2021/12/26 09:03:58;;;;;;;5.35;4.03;;;;;;;;;;5029300;28;20048;-76
2021/12/26 09:06:25;;;;;;;5.85;3.63;;;;;;;;;;5037508;28;20476;-74
2021/12/26 09:08:51;;;;;;;6.43;4.18;;;;;;;;;;5036636;28;20041;-73
2021/12/26 09:11:18;;;;;;;6.18;3.60;;;;;;;;;;5038399;28;20076;-74
2021/12/26 09:13:44;;;;;;;4.88;4.05;;;;;;;;;;5036972;28;20426;-74
2021/12/26 09:16:10;;;;;;;6.47;4.60;;;;;;;;;;5037011;28;20099;-75
2021/12/26 09:18:36;;;;;;;5.20;4.03;;;;;;;;;;5034214;28;20037;-74
2021/12/26 09:21:03;;;;;;;5.20;4.20;;;;;;;;;;5037677;28;20095;-75
2021/12/26 09:23:29;;;;;;;7.30;4.30;;;;;;;;;;5032238;28;20435;-73
2021/12/26 09:25:55;;;;;;;6.93;4.07;;;;;;;;;;5024991;28;20043;-76
2021/12/26 09:28:21;;;;;;;7.85;4.80;;;;;;;;;;5037440;28;20045;-74
2021/12/26 09:30:47;;;;;;;6.72;4.68;;;;;;;;;;5032805;28;20041;-75
2021/12/26 09:33:19;;;;;;;6.25;4.60;;;;;;;;;;5025539;28;20338;-76
2021/12/26 09:35:46;;;;;;;6.40;4.68;;;;;;;;;;5036614;28;20049;-74
2021/12/26 09:38:12;;;;;;;6.97;4.57;;;;;;;;;;5024635;28;20042;-74
2021/12/26 09:40:39;;;;;;;4.68;3.67;;;;;;;;;;5018800;28;20053;-72
2021/12/26 09:43:05;;;;;;;7.45;4.82;;;;;;;;;;5053563;28;20033;-75
2021/12/26 09:45:31;;;;;;;5.78;4.43;;;;;;;;;;5033946;28;20041;-74
2021/12/26 09:47:57;;;;;;;5.50;3.92;;;;;;;;;;5035774;28;20365;-74
2021/12/26 09:50:23;;;;;;;5.35;4.60;;;;;;;;;;5035782;28;20041;-76
2021/12/26 09:52:53;;;;;;;8.10;4.55;;;;;;;;;;5025155;28;20119;-75
2021/12/26 09:55:19;;;;;;;7.25;4.47;;;;;;;;;;5035255;28;20045;-75
2021/12/26 09:57:45;;;;;;;5.53;4.75;;;;;;;;;;5023346;28;20064;-79
2021/12/26 10:00:30;;;;;;;6.47;4.82;;;;;;;;;;5036177;28;20455;-77
2021/12/26 10:03:14;;;;;;;6.93;4.75;;;;;;;;;;5035982;28;20059;-74
2021/12/26 10:05:59;;;;;;;6.70;4.28;;;;;;;;;;5028281;28;20037;-74
2021/12/26 10:08:26;;;;;;;5.45;3.83;;;;;;;;;;5034629;28;20048;-73
2021/12/26 10:11:05;;;;;;;5.55;3.45;;;;;;;;;;5035166;28;20056;-73
2021/12/26 10:13:43;;;;;;;4.85;4.00;;;;;;;;;;5035871;28;20040;-74
2021/12/26 10:16:10;;;;;;;4.65;3.70;;;;;;;;;;5021274;28;20049;-75
2021/12/26 10:18:40;;;;;;;5.05;4.10;;;;;;;;;;5016440;28;20112;-76
2021/12/26 10:21:23;;;;;;;4.53;3.47;;;;;;;;;;5028810;28;20333;-74
2021/12/26 10:23:49;;;;;;;5.88;4.30;;;;;;;;;;5036032;28;20399;-76
2021/12/26 10:26:22;;;;;;;4.80;3.80;;;;;;;;;;5053841;28;20058;-77
2021/12/26 10:29:07;;;;;;;5.63;3.72;;;;;;;;;;5016705;28;20084;-75
2021/12/26 10:31:34;;;;;;;6.10;4.00;;;;;;;;;;5027820;28;20033;-73
2021/12/26 10:34:00;;;;;;;5.50;4.10;;;;;;;;;;5027503;28;20059;-75
2021/12/26 10:36:27;;;;;;;6.07;4.25;;;;;;;;;;5038282;28;20483;-74
2021/12/26 10:39:25;;;;;;;4.43;3.70;;;;;;;;;;5034891;28;20049;-75
2021/12/26 10:41:53;;;;;;;5.60;4.10;;;;;;;;;;5020495;28;20104;-74
2021/12/26 10:44:21;;;;;;;6.43;4.47;;;;;;;;;;5036122;28;20071;-74
2021/12/26 10:46:48;;;;;;;6.82;3.90;;;;;;;;;;5036357;28;20041;-75
2021/12/26 10:49:21;;;;;;;5.93;4.65;;;;;;;;;;5018485;28;20045;-76
2021/12/26 10:51:47;;;;;;;4.70;4.03;;;;;;;;;;5032766;28;20060;-73
2021/12/26 10:54:17;;;;;;;6.50;4.10;;;;;;;;;;5019001;28;20055;-75
2021/12/26 10:57:01;;;;;;;5.53;4.05;;;;;;;;;;5050532;28;20065;-76
2021/12/26 10:59:27;;;;;;;6.53;4.10;;;;;;;;;;5038882;28;20049;-76
2021/12/26 11:01:56;;;;;;;6.72;4.10;;;;;;;;;;5022712;28;20041;-75
2021/12/26 11:04:22;;;;;;;6.25;4.20;;;;;;;;;;5027147;28;20056;-74
2021/12/26 11:06:58;;;;;;;5.35;3.70;;;;;;;;;;5039125;28;20129;-76
2021/12/26 11:09:24;;;;;;;6.37;4.03;;;;;;;;;;5033788;28;20071;-75
2021/12/26 11:12:05;;;;;;;4.60;4.10;;;;;;;;;;5051364;28;20511;-75
2021/12/26 11:14:32;;;;;;;6.95;4.22;;;;;;;;;;5038412;28;20052;-75
2021/12/26 11:16:58;;;;;;;5.32;4.32;;;;;;;;;;5030907;28;20069;-76
2021/12/26 11:19:41;;;;;;;5.93;4.05;;;;;;;;;;5036180;28;20045;-75
2021/12/26 11:22:07;;;;;;;5.63;4.10;;;;;;;;;;5035932;28;20049;-75
2021/12/26 11:24:34;;;;;;;6.90;4.18;;;;;;;;;;5031904;28;20045;-76
2021/12/26 11:27:02;;;;;;;6.88;5.18;;;;;;;;;;5045677;28;20049;-75
2021/12/26 11:29:28;;;;;;;5.43;4.15;;;;;;;;;;5034223;28;20053;-75
2021/12/26 11:31:55;;;;;;;5.57;4.63;;;;;;;;;;5032223;28;20041;-74
2021/12/26 11:34:21;;;;;;;5.05;3.95;;;;;;;;;;5031129;28;20040;-74
2021/12/26 11:36:50;;;;;;;7.70;5.18;;;;;;;;;;5038682;28;20041;-75
2021/12/26 11:39:17;;;;;;;5.63;4.18;;;;;;;;;;5039106;28;20485;-73
2021/12/26 11:41:51;;;;;;;5.93;4.28;;;;;;;;;;5036728;28;20045;-75
2021/12/26 11:44:31;;;;;;;6.95;4.60;;;;;;;;;;5038140;28;20464;-73
2021/12/26 11:47:16;;;;;;;5.38;4.13;;;;;;;;;;5039255;28;20445;-73
2021/12/26 11:50:04;;;;;;;6.03;4.07;;;;;;;;;;5019879;28;20053;-76
2021/12/26 11:52:49;;;;;;;6.60;4.28;;;;;;;;;;5028802;28;20037;-72
2021/12/26 11:55:24;;;;;;;6.35;4.50;;;;;;;;;;5038455;28;20044;-76
2021/12/26 11:58:09;;;;;;;7.90;4.50;;;;;;;;;;5038744;28;20124;-74
2021/12/26 12:00:37;;;;;;;7.38;4.28;;;;;;;;;;5034828;28;20456;-76
2021/12/26 12:03:16;;;;;;;5.72;4.47;;;;;;;;;;5039534;28;20045;-75
2021/12/26 12:05:43;;;;;;;5.53;3.90;;;;;;;;;;5047818;28;20048;-76
2021/12/26 12:08:14;;;;;;;6.00;4.38;;;;;;;;;;5020954;28;20060;-74
2021/12/26 12:10:56;;;;;;;6.22;4.13;;;;;;;;;;5018194;28;20453;-76
2021/12/26 12:13:22;;;;;;;6.03;4.20;;;;;;;;;;5018518;28;20041;-73
2021/12/26 12:15:48;;;;;;;6.72;4.50;;;;;;;;;;5035473;28;20145;-75
2021/12/26 12:18:17;;;;;;;6.28;4.45;;;;;;;;;;5041899;28;20120;-73
2021/12/26 12:20:43;;;;;;;7.22;4.25;;;;;;;;;;5035329;28;20063;-73
2021/12/26 12:23:12;;;;;;;6.22;4.43;;;;;;;;;;5036104;28;20041;-74
2021/12/26 12:25:39;;;;;;;7.07;4.30;;;;;;;;;;5037768;28;20049;-73
2021/12/26 12:28:19;;;;;;;5.55;3.90;;;;;;;;;;5037060;28;20101;-76
2021/12/26 12:30:56;;;;;;;6.90;4.32;;;;;;;;;;5025527;28;20073;-75
2021/12/26 12:33:28;;;;;;;5.32;4.60;;;;;;;;;;5018018;28;20085;-73
2021/12/26 12:35:54;;;;;;;7.75;4.25;;;;;;;;;;5035211;28;20133;-72
2021/12/26 12:38:23;;;;;;;6.65;4.30;;;;;;;;;;5018168;28;20064;-76
2021/12/26 12:40:49;;;;;;;7.70;4.25;;;;;;;;;;5026119;28;20041;-75
2021/12/26 12:43:18;;;;;;;5.72;3.70;;;;;;;;;;5017869;28;20076;-74
2021/12/26 12:46:02;;;;;;;7.03;4.30;;;;;;;;;;5051231;28;20049;-73
2021/12/26 12:48:40;;;;;;;4.93;4.00;;;;;;;;;;5034917;28;20298;-76
2021/12/26 12:51:15;;;;;;;6.28;4.50;;;;;;;;;;5025049;28;20060;-73
2021/12/26 12:53:45;;;;;;;5.90;4.50;;;;;;;;;;5055234;28;20051;-74
2021/12/26 12:56:33;;;;;;;5.78;4.07;;;;;;;;;;5037356;28;20045;-76
2021/12/26 12:59:15;;;;;;;6.03;4.65;;;;;;;;;;5036938;28;20091;-74
2021/12/26 13:01:43;;;;;;;7.25;4.55;;;;;;;;;;5037458;28;20460;-75
2021/12/26 13:04:10;;;;;;;6.50;4.72;;;;;;;;;;5036751;28;20045;-77
2021/12/26 13:06:36;;;;;;;5.90;4.13;;;;;;;;;;5045470;28;20052;-75
2021/12/26 13:09:02;;;;;;;7.18;4.78;;;;;;;;;;5050576;28;20052;-77
2021/12/26 13:11:30;;;;;;;6.80;4.85;;;;;;;;;;5048762;28;20063;-75
2021/12/26 13:14:00;;;;;;;6.22;4.85;;;;;;;;;;5037307;28;20128;-74
2021/12/26 13:16:30;;;;;;;5.55;4.20;;;;;;;;;;5036608;28;20101;-74
2021/12/26 13:19:04;;;;;;;5.88;4.35;;;;;;;;;;5034348;28;20109;-77
2021/12/26 13:21:30;;;;;;;7.07;4.57;;;;;;;;;;5047151;28;20063;-73
2021/12/26 13:23:56;;;;;;;6.82;4.60;;;;;;;;;;5035946;28;20056;-77
2021/12/26 13:26:22;;;;;;;7.30;4.50;;;;;;;;;;5037667;28;20124;-74
2021/12/26 13:28:50;;;;;;;6.35;4.32;;;;;;;;;;5036969;28;20053;-74
2021/12/26 13:31:16;;;;;;;7.55;5.25;;;;;;;;;;5035081;28;20120;-75
2021/12/26 13:33:43;;;;;;;6.10;4.47;;;;;;;;;;5031906;28;20103;-75
2021/12/26 13:36:15;;;;;;;5.82;4.53;;;;;;;;;;5036716;28;20103;-76
2021/12/26 13:38:42;;;;;;;6.05;4.57;;;;;;;;;;5037369;28;20040;-74
2021/12/26 13:41:11;;;;;;;6.85;4.35;;;;;;;;;;5019177;28;20145;-76
2021/12/26 13:43:39;;;;;;;7.80;4.75;;;;;;;;;;5049456;28;20105;-75
2021/12/26 13:46:05;;;;;;;6.93;4.75;;;;;;;;;;5036156;28;20106;-75
2021/12/26 13:48:37;;;;;;;6.90;4.90;;;;;;;;;;5037019;28;20037;-75
2021/12/26 13:51:22;;;;;;;6.22;4.93;;;;;;;;;;5025808;28;20053;-73
2021/12/26 13:53:51;;;;;;;6.00;4.43;;;;;;;;;;5029777;28;20045;-74
2021/12/26 13:56:17;;;;;;;6.32;4.75;;;;;;;;;;5031126;28;20065;-74
2021/12/26 13:58:43;;;;;;;7.03;4.90;;;;;;;;;;5022537;28;20041;-73
2021/12/26 14:01:10;;;;;;;6.82;4.82;;;;;;;;;;5053124;28;20071;-74
2021/12/26 14:03:37;;;;;;;8.25;5.03;;;;;;;;;;5035278;28;20477;-74
2021/12/26 14:06:03;;;;;;;6.38;4.85;;;;;;;;;;5035935;28;20056;-73
2021/12/26 14:08:30;;;;;;;6.93;4.88;;;;;;;;;;5030479;28;20057;-74
2021/12/26 14:11:07;;;;;;;6.60;4.28;;;;;;;;;;5019016;28;20123;-73
2021/12/26 14:13:44;;;;;;;7.07;4.57;;;;;;;;;;5035797;28;20067;-73
2021/12/26 14:16:10;;;;;;;6.03;4.65;;;;;;;;;;5053641;28;20040;-72
2021/12/26 14:18:38;;;;;;;8.10;5.20;;;;;;;;;;5036043;28;20355;-74
2021/12/26 14:21:11;;;;;;;7.18;4.32;;;;;;;;;;5051582;28;20139;-73
2021/12/26 14:23:41;;;;;;;6.85;4.63;;;;;;;;;;5035191;28;20184;-73
2021/12/26 14:26:12;;;;;;;7.13;4.60;;;;;;;;;;5051779;28;20040;-73
2021/12/26 14:28:41;;;;;;;7.50;4.75;;;;;;;;;;5035365;28;20041;-75
2021/12/26 14:31:07;;;;;;;6.65;4.50;;;;;;;;;;5055071;28;20048;-72
2021/12/26 14:33:49;;;;;;;5.95;4.68;;;;;;;;;;5040033;28;20049;-75
2021/12/26 14:36:16;;;;;;;7.15;4.32;;;;;;;;;;5023216;28;20045;-72
2021/12/26 14:38:56;;;;;;;6.72;4.38;;;;;;;;;;5040353;28;20053;-73
2021/12/26 14:41:23;;;;;;;5.80;4.47;;;;;;;;;;5039504;28;20049;-73
2021/12/26 14:43:49;;;;;;;7.65;4.45;;;;;;;;;;5038901;28;20067;-74
2021/12/26 14:46:15;;;;;;;6.20;4.43;;;;;;;;;;5057652;28;20044;-72
2021/12/26 14:48:42;;;;;;;5.18;4.15;;;;;;;;;;5056643;28;20322;-73